createdAt,value
2019-03-15T00:00:47.139Z,10.25
2019-03-15T00:03:15.764Z,12.93
2019-03-15T00:05:44.305Z,5.37
2019-03-15T00:08:12.842Z,12.95
2019-03-15T00:10:41.405Z,10.38
2019-03-15T00:13:09.947Z,8.58
2019-03-15T00:15:38.511Z,13.68
2019-03-15T00:18:07.051Z,11.68
2019-03-15T00:20:56.491Z,15.98
2019-03-15T00:23:25.038Z,7.92
2019-03-15T00:25:55.319Z,10.95
2019-03-15T00:28:23.910Z,12.63
2019-03-15T00:30:52.582Z,13.18
2019-03-15T00:33:21.123Z,12.07
2019-03-15T00:35:50.948Z,10.00
2019-03-15T00:38:19.483Z,11.30
2019-03-15T00:40:48.111Z,7.22
2019-03-15T00:43:16.652Z,7.97
2019-03-15T00:45:45.296Z,10.95
2019-03-15T00:48:13.839Z,16.97
2019-03-15T00:50:42.390Z,12.00
2019-03-15T00:53:10.975Z,14.85
2019-03-15T00:55:39.510Z,10.08
2019-03-15T00:58:08.019Z,10.75
2019-03-15T01:00:36.623Z,14.68
2019-03-15T01:03:05.179Z,11.90
2019-03-15T01:05:33.791Z,13.00
2019-03-15T01:08:02.335Z,15.25
2019-03-15T01:10:30.874Z,19.05
2019-03-15T01:12:59.431Z,14.00
2019-03-15T01:15:27.983Z,12.40
2019-03-15T01:17:56.560Z,13.72
2019-03-15T01:20:25.426Z,20.12
2019-03-15T01:22:53.971Z,17.52
2019-03-15T01:25:22.532Z,11.18
2019-03-15T01:27:51.379Z,14.83
2019-03-15T01:30:19.971Z,14.60
2019-03-15T01:32:48.503Z,8.38
2019-03-15T01:35:17.282Z,14.90
2019-03-15T01:37:46.121Z,12.47
2019-03-15T01:40:14.649Z,13.78
2019-03-15T01:42:43.222Z,13.40
2019-03-15T01:45:11.798Z,16.70
2019-03-15T01:47:40.402Z,15.08
2019-03-15T01:50:09.749Z,16.65
2019-03-15T01:52:38.388Z,10.25
2019-03-15T01:55:06.929Z,12.13
2019-03-15T01:57:35.530Z,14.63
2019-03-15T02:00:06.837Z,16.07
2019-03-15T02:02:35.312Z,14.50
2019-03-15T02:05:04.523Z,12.90
2019-03-15T02:07:33.126Z,15.25
2019-03-15T02:10:01.991Z,13.65
2019-03-15T02:12:30.484Z,14.55
2019-03-15T02:14:59.367Z,15.23
2019-03-15T02:17:27.902Z,17.27
2019-03-15T02:19:56.534Z,17.60
2019-03-15T02:22:24.999Z,10.93
2019-03-15T02:24:53.783Z,14.43
2019-03-15T02:27:22.342Z,16.17
2019-03-15T02:29:50.891Z,17.77
2019-03-15T02:32:19.455Z,13.05
2019-03-15T02:34:47.986Z,11.43
2019-03-15T02:37:16.456Z,8.58
2019-03-15T02:39:46.179Z,14.38
2019-03-15T02:42:15.143Z,15.48
2019-03-15T02:44:43.691Z,19.92
2019-03-15T02:47:12.251Z,15.78
2019-03-15T02:49:40.789Z,12.00
2019-03-15T02:52:09.322Z,11.20
2019-03-15T02:54:37.879Z,13.32
2019-03-15T02:57:06.491Z,9.68
2019-03-15T02:59:35.040Z,15.03
2019-03-15T03:02:03.604Z,12.78
2019-03-15T03:04:32.147Z,17.90
2019-03-15T03:07:00.688Z,14.20
2019-03-15T03:09:29.254Z,14.55
2019-03-15T03:11:57.790Z,17.10
2019-03-15T03:14:26.354Z,20.85
2019-03-15T03:16:54.888Z,16.27
2019-03-15T03:19:23.739Z,10.20
2019-03-15T03:21:52.329Z,11.83
2019-03-15T03:24:20.854Z,11.73
2019-03-15T03:26:49.421Z,16.40
2019-03-15T03:29:17.948Z,15.23
2019-03-15T03:32:05.855Z,14.20
2019-03-15T03:34:34.786Z,15.50
2019-03-15T03:37:04.919Z,11.78
2019-03-15T03:39:34.410Z,9.15
2019-03-15T03:42:03.719Z,18.00
2019-03-15T03:44:32.284Z,15.13
2019-03-15T03:47:00.818Z,16.20
2019-03-15T03:49:29.379Z,14.03
2019-03-15T03:51:57.931Z,12.60
2019-03-15T03:54:26.605Z,12.30
2019-03-15T03:56:55.251Z,19.95
2019-03-15T03:59:23.941Z,12.70
2019-03-15T04:01:53.003Z,17.35
2019-03-15T04:04:21.887Z,14.87
2019-03-15T04:06:50.557Z,10.85
2019-03-15T04:09:20.572Z,21.82
2019-03-15T04:11:55.602Z,15.60
2019-03-15T04:14:20.998Z,8.83
2019-03-15T04:16:49.548Z,13.28
2019-03-15T04:19:18.080Z,19.05
2019-03-15T04:21:46.646Z,12.47
2019-03-15T04:27:04.117Z,16.02
2019-03-15T04:29:32.717Z,13.62
2019-03-15T04:32:01.517Z,13.93
2019-03-15T04:34:30.217Z,15.83
2019-03-15T04:36:58.756Z,16.77
2019-03-15T04:39:27.367Z,17.00
2019-03-15T04:41:55.953Z,12.70
2019-03-15T04:44:24.495Z,11.95
2019-03-15T04:46:53.035Z,15.83
2019-03-15T04:49:21.606Z,18.10
2019-03-15T04:51:50.164Z,12.65
2019-03-15T04:54:18.699Z,13.90
2019-03-15T04:56:47.614Z,12.78
2019-03-15T04:59:16.148Z,14.78
2019-03-15T05:01:44.682Z,13.05
2019-03-15T05:04:13.327Z,14.90
2019-03-15T05:06:41.867Z,13.35
2019-03-15T05:09:10.405Z,16.57
2019-03-15T05:11:38.970Z,12.47
2019-03-15T05:14:07.869Z,14.55
2019-03-15T05:16:36.406Z,9.75
2019-03-15T05:19:04.965Z,14.63
2019-03-15T05:21:33.522Z,10.82
2019-03-15T05:24:02.098Z,18.60
2019-03-15T05:26:30.914Z,14.75
2019-03-15T05:28:59.469Z,15.38
2019-03-15T05:31:28.010Z,15.32
2019-03-15T05:33:56.706Z,15.68
2019-03-15T05:36:25.351Z,10.40
2019-03-15T05:38:53.902Z,9.63
2019-03-15T05:41:22.481Z,13.93
2019-03-15T05:43:53.143Z,11.43
2019-03-15T05:46:21.239Z,11.55
2019-03-15T05:51:43.984Z,11.43
2019-03-15T05:54:12.610Z,11.20
2019-03-15T05:56:41.159Z,19.12
2019-03-15T05:59:09.719Z,11.70
2019-03-15T06:01:38.259Z,10.88
2019-03-15T06:04:07.097Z,14.73
2019-03-15T06:06:35.883Z,13.30
2019-03-15T06:09:26.003Z,13.70
2019-03-15T06:11:54.673Z,15.80
2019-03-15T06:14:23.447Z,12.53
2019-03-15T06:16:52.034Z,16.07
2019-03-15T06:19:20.709Z,11.90
2019-03-15T06:21:49.332Z,17.30
2019-03-15T06:24:18.187Z,12.15
2019-03-15T06:26:46.768Z,16.80
2019-03-15T06:29:15.341Z,19.07
2019-03-15T06:31:43.963Z,15.35
2019-03-15T06:34:12.539Z,16.02
2019-03-15T06:36:41.411Z,16.00
2019-03-15T06:39:10.059Z,16.37
2019-03-15T06:41:38.969Z,14.63
2019-03-15T06:44:07.513Z,17.75
2019-03-15T06:46:36.192Z,22.40
2019-03-15T06:49:25.721Z,13.72
2019-03-15T06:52:05.472Z,18.20
2019-03-15T06:54:36.232Z,16.87
2019-03-15T06:57:07.087Z,17.75
2019-03-15T06:59:40.278Z,16.37
2019-03-15T07:02:13.934Z,20.92
2019-03-15T07:04:43.471Z,20.17
2019-03-15T07:07:15.105Z,16.75
2019-03-15T07:09:42.960Z,11.45
2019-03-15T07:12:11.926Z,13.72
2019-03-15T07:14:40.503Z,18.55
2019-03-15T07:17:09.030Z,18.10
2019-03-15T07:19:37.591Z,16.12
2019-03-15T07:22:06.218Z,13.30
2019-03-15T07:24:34.801Z,10.65
2019-03-15T07:27:12.705Z,12.50
2019-03-15T07:29:33.964Z,19.30
2019-03-15T07:32:02.565Z,20.92
2019-03-15T07:34:31.179Z,19.07
2019-03-15T07:37:01.305Z,19.23
2019-03-15T07:39:30.253Z,19.95
2019-03-15T07:41:58.945Z,18.87
2019-03-15T07:44:29.372Z,17.73
2019-03-15T07:46:57.936Z,15.43
2019-03-15T07:49:26.743Z,19.25
2019-03-15T07:51:55.520Z,13.35
2019-03-15T07:54:33.465Z,14.55
2019-03-15T07:56:55.185Z,14.98
2019-03-15T07:59:23.890Z,16.87
2019-03-15T08:01:53.241Z,14.85
2019-03-15T08:04:21.873Z,15.13
2019-03-15T08:06:50.606Z,20.55
2019-03-15T08:09:19.159Z,18.23
2019-03-15T08:11:47.884Z,18.00
2019-03-15T08:14:16.529Z,16.95
2019-03-15T08:16:45.177Z,15.80
2019-03-15T08:19:13.791Z,16.60
2019-03-15T08:21:42.361Z,26.82
2019-03-15T08:24:11.084Z,16.97
2019-03-15T08:26:39.796Z,17.70
2019-03-15T08:29:09.831Z,16.57
2019-03-15T08:31:38.692Z,16.07
2019-03-15T08:34:07.210Z,17.52
2019-03-15T08:36:35.710Z,15.20
2019-03-15T08:39:06.108Z,15.83
2019-03-15T08:41:34.638Z,13.28
2019-03-15T08:44:03.522Z,13.65
2019-03-15T08:46:32.422Z,15.45
2019-03-15T08:49:01.023Z,13.22
2019-03-15T08:51:29.882Z,16.97
2019-03-15T08:53:58.370Z,17.02
2019-03-15T08:56:26.923Z,12.18
2019-03-15T08:58:55.462Z,19.25
2019-03-15T09:01:24.419Z,9.75
2019-03-15T09:03:52.960Z,17.15
2019-03-15T09:06:21.635Z,17.10
2019-03-15T09:08:50.471Z,9.50
2019-03-15T09:11:19.014Z,15.28
2019-03-15T09:13:49.122Z,12.13
2019-03-15T09:16:18.374Z,12.45
2019-03-15T09:18:46.949Z,12.88
2019-03-15T09:21:15.503Z,12.50
2019-03-15T09:23:44.060Z,10.10
2019-03-15T09:26:12.655Z,14.20
2019-03-15T09:28:41.216Z,9.60
2019-03-15T09:31:09.771Z,16.73
2019-03-15T09:33:38.286Z,8.48
2019-03-15T09:36:06.863Z,14.65
2019-03-15T09:38:35.426Z,11.48
2019-03-15T09:41:04.140Z,10.30
2019-03-15T09:43:32.810Z,10.53
2019-03-15T09:46:01.345Z,9.05
2019-03-15T09:48:29.906Z,10.28
2019-03-15T09:50:58.460Z,12.60
2019-03-15T09:53:27.023Z,10.78
2019-03-15T09:55:55.907Z,13.62
2019-03-15T09:58:24.686Z,7.65
2019-03-15T10:00:53.258Z,10.53
2019-03-15T10:03:22.774Z,9.48
2019-03-15T10:05:51.400Z,6.85
2019-03-15T10:08:23.338Z,9.60
2019-03-15T10:10:50.212Z,7.90
2019-03-15T10:13:18.776Z,5.95
2019-03-15T10:15:47.768Z,10.70
2019-03-15T10:18:16.474Z,8.58
2019-03-15T10:20:45.632Z,7.40
2019-03-15T10:23:14.570Z,9.70
2019-03-15T10:25:48.395Z,8.85
2019-03-15T10:28:13.344Z,8.45
2019-03-15T10:31:01.327Z,11.10
2019-03-15T10:33:29.867Z,5.58
2019-03-15T10:35:58.410Z,4.62
2019-03-15T10:38:26.913Z,7.25
2019-03-15T10:40:55.439Z,6.47
2019-03-15T10:43:24.068Z,10.80
2019-03-15T10:45:52.640Z,6.35
2019-03-15T10:48:25.577Z,10.32
2019-03-15T10:50:51.383Z,9.03
2019-03-15T10:53:19.958Z,4.08
2019-03-15T10:55:59.650Z,4.45
2019-03-15T10:58:18.709Z,6.28
2019-03-15T11:00:47.242Z,4.95
2019-03-15T11:03:15.863Z,6.47
2019-03-15T11:05:44.521Z,6.78
2019-03-15T11:08:13.062Z,5.90
2019-03-15T11:10:41.838Z,7.37
2019-03-15T11:13:10.411Z,6.50
2019-03-15T11:15:39.020Z,7.30
2019-03-15T11:18:07.635Z,9.28
2019-03-15T11:20:36.289Z,4.25
2019-03-15T11:23:04.963Z,4.28
2019-03-15T11:25:33.571Z,6.35
2019-03-15T11:28:02.274Z,4.10
2019-03-15T11:30:30.875Z,5.33
2019-03-15T11:32:59.906Z,4.70
2019-03-15T11:35:28.627Z,6.42
2019-03-15T11:37:57.189Z,7.10
2019-03-15T11:40:25.802Z,2.87
2019-03-15T11:42:54.346Z,6.15
2019-03-15T11:45:22.949Z,5.60
2019-03-15T11:48:03.351Z,3.75
2019-03-15T11:50:22.427Z,3.17
2019-03-15T11:52:51.038Z,2.40
2019-03-15T11:55:19.604Z,4.25
2019-03-15T11:57:48.142Z,6.12
2019-03-15T12:00:21.470Z,3.67
2019-03-15T12:03:09.022Z,2.47
2019-03-15T12:05:37.581Z,3.42
2019-03-15T12:08:06.207Z,3.17
2019-03-15T12:10:34.851Z,5.85
2019-03-15T12:13:03.421Z,4.85
2019-03-15T12:15:31.939Z,3.85
2019-03-15T12:18:00.523Z,3.70
2019-03-15T12:20:29.079Z,2.70
2019-03-15T12:22:57.891Z,3.83
2019-03-15T12:25:31.220Z,2.72
2019-03-15T12:27:58.221Z,2.72
2019-03-15T12:30:26.996Z,2.60
2019-03-15T12:32:55.568Z,3.08
2019-03-15T12:35:24.155Z,3.35
2019-03-15T12:37:52.700Z,6.62
2019-03-15T12:40:21.241Z,2.95
2019-03-15T12:42:50.548Z,5.33
2019-03-15T12:45:19.167Z,4.60
2019-03-15T12:47:47.740Z,7.90
2019-03-15T12:50:16.750Z,3.87
2019-03-15T12:52:47.968Z,4.47
2019-03-15T12:55:16.326Z,3.12
2019-03-15T12:57:44.952Z,5.33
2019-03-15T13:00:15.535Z,5.72
2019-03-15T13:02:44.174Z,2.47
2019-03-15T13:05:12.968Z,6.78
2019-03-15T13:07:41.892Z,3.37
2019-03-15T13:10:19.009Z,3.62
2019-03-15T13:12:47.662Z,1.77
2019-03-15T13:15:19.207Z,0.65
2019-03-15T13:17:49.645Z,0.60
2019-03-15T13:20:20.443Z,0.72
2019-03-15T13:22:48.660Z,0.85
2019-03-15T13:25:17.271Z,1.77
2019-03-15T13:27:45.885Z,0.42
2019-03-15T13:30:16.010Z,0.80
2019-03-15T13:32:44.728Z,0.72
2019-03-15T13:35:14.407Z,1.40
2019-03-15T13:37:55.289Z,1.60
2019-03-15T13:40:23.844Z,1.20
2019-03-15T13:42:52.458Z,2.37
2019-03-15T13:45:21.100Z,2.15
2019-03-15T13:47:49.672Z,0.68
2019-03-15T13:50:28.001Z,3.08
2019-03-15T13:53:00.643Z,2.72
2019-03-15T13:55:31.045Z,1.12
2019-03-15T13:57:59.654Z,1.57
2019-03-15T14:00:28.614Z,2.62
2019-03-15T14:02:57.157Z,2.98
2019-03-15T14:05:25.732Z,1.80
2019-03-15T14:07:54.342Z,1.82
2019-03-15T14:10:22.886Z,2.52
2019-03-15T14:12:51.527Z,5.65
2019-03-15T14:15:21.306Z,2.12
2019-03-15T14:17:49.859Z,1.62
2019-03-15T14:20:18.494Z,2.45
2019-03-15T14:22:47.202Z,3.92
2019-03-15T14:25:45.083Z,1.10
2019-03-15T14:28:13.628Z,1.60
2019-03-15T14:30:42.205Z,1.37
2019-03-15T14:33:10.839Z,4.10
2019-03-15T14:35:40.297Z,2.58
2019-03-15T14:38:10.880Z,5.67
2019-03-15T14:40:39.644Z,2.42
2019-03-15T14:43:08.317Z,1.80
2019-03-15T14:45:37.154Z,2.62
2019-03-15T14:48:07.294Z,2.65
2019-03-15T14:50:35.874Z,1.52
2019-03-15T14:53:04.439Z,2.92
2019-03-15T14:55:34.705Z,4.25
2019-03-15T14:58:04.210Z,3.30
2019-03-15T15:00:38.983Z,5.42
2019-03-15T15:03:09.272Z,2.27
2019-03-15T15:05:40.488Z,2.50
2019-03-15T15:08:09.109Z,3.42
2019-03-15T15:10:37.771Z,4.03
2019-03-15T15:13:07.685Z,2.62
2019-03-15T15:15:37.542Z,2.35
2019-03-15T15:18:06.180Z,3.22
2019-03-15T15:20:34.840Z,4.30
2019-03-15T15:23:04.884Z,2.05
2019-03-15T15:25:33.480Z,4.50
2019-03-15T15:28:05.151Z,2.60
2019-03-15T15:30:34.319Z,2.72
2019-03-15T15:33:04.471Z,4.08
2019-03-15T15:35:33.481Z,5.87
2019-03-15T15:38:02.012Z,3.70
2019-03-15T15:40:39.742Z,5.22
2019-03-15T15:43:08.807Z,3.83
2019-03-15T15:45:39.519Z,3.15
2019-03-15T15:48:09.359Z,4.42
2019-03-15T15:50:40.151Z,5.50
2019-03-15T15:53:11.105Z,3.17
2019-03-15T15:55:38.909Z,3.62
2019-03-15T15:58:17.424Z,3.15
2019-03-15T16:00:41.285Z,2.02
2019-03-15T16:03:13.467Z,2.30
2019-03-15T16:05:46.825Z,2.70
2019-03-15T16:11:40.595Z,4.25
2019-03-15T16:14:11.677Z,5.40
2019-03-15T16:16:40.908Z,2.55
2019-03-15T16:19:09.505Z,2.25
2019-03-15T16:21:43.708Z,2.17
2019-03-15T16:24:13.935Z,3.08
2019-03-15T16:26:47.040Z,4.25
2019-03-15T16:29:15.598Z,2.40
2019-03-15T16:31:47.712Z,2.05
2019-03-15T16:34:16.259Z,3.80
2019-03-15T16:36:46.400Z,3.33
2019-03-15T16:39:15.006Z,2.77
2019-03-15T16:41:43.560Z,3.62
2019-03-15T16:44:13.346Z,1.60
2019-03-15T16:46:42.063Z,2.00
2019-03-15T16:49:10.618Z,2.92
2019-03-15T16:51:39.207Z,1.75
2019-03-15T16:54:07.732Z,1.47
2019-03-15T16:56:36.376Z,2.12
2019-03-15T16:59:07.470Z,5.12
2019-03-15T17:07:42.436Z,4.12
2019-03-15T17:10:23.794Z,2.87
2019-03-15T17:12:59.655Z,2.55
2019-03-15T17:21:14.486Z,1.57
2019-03-15T17:23:49.375Z,4.20
2019-03-15T17:26:36.339Z,1.10
2019-03-15T17:29:18.767Z,2.12
2019-03-15T17:34:34.129Z,3.42
2019-03-15T17:37:10.381Z,3.33
2019-03-15T17:39:44.618Z,2.58
2019-03-15T17:42:18.851Z,2.30
2019-03-15T17:44:51.408Z,3.83
2019-03-15T17:47:22.216Z,2.92
2019-03-15T17:49:53.285Z,2.02
2019-03-15T17:52:26.795Z,2.70
2019-03-15T17:54:57.767Z,3.50
2019-03-15T17:57:26.388Z,4.03
2019-03-15T18:00:00.760Z,3.95
2019-03-15T18:02:29.486Z,5.72
2019-03-15T18:04:58.667Z,6.50
2019-03-15T18:07:29.404Z,4.25
2019-03-15T18:09:58.288Z,4.60
2019-03-15T18:12:26.855Z,4.75
2019-03-15T18:14:55.563Z,3.92
2019-03-15T18:17:24.742Z,6.97
2019-03-15T18:19:53.275Z,4.90
2019-03-15T18:22:24.998Z,4.20
2019-03-15T18:24:54.711Z,8.58
2019-03-15T18:27:24.940Z,4.42
2019-03-15T18:29:54.642Z,7.85
2019-03-15T18:32:26.193Z,7.37
2019-03-15T18:34:55.179Z,4.80
2019-03-15T18:37:23.753Z,7.53
2019-03-15T18:39:52.874Z,7.03
2019-03-15T18:42:21.944Z,9.45
2019-03-15T18:44:50.749Z,8.45
2019-03-15T18:47:41.369Z,6.80
2019-03-15T18:50:25.121Z,9.98
2019-03-15T18:52:53.813Z,7.85
2019-03-15T18:55:22.619Z,9.43
2019-03-15T18:57:55.587Z,11.70
2019-03-15T19:00:25.488Z,7.83
2019-03-15T19:02:54.304Z,8.68
2019-03-15T19:05:23.890Z,6.47
2019-03-15T19:07:52.671Z,11.28
2019-03-15T19:10:21.501Z,15.13
2019-03-15T19:12:50.417Z,8.28
2019-03-15T19:15:22.391Z,17.62
2019-03-15T19:17:51.209Z,14.53
2019-03-15T19:20:19.878Z,9.00
2019-03-15T19:22:48.683Z,10.28
2019-03-15T19:25:17.531Z,7.97
2019-03-15T19:27:48.387Z,14.20
2019-03-15T19:30:18.803Z,11.08
2019-03-15T19:33:08.631Z,9.10
2019-03-15T19:35:45.794Z,8.30
2019-03-15T19:38:18.460Z,7.28
2019-03-15T19:40:54.502Z,6.15
2019-03-15T19:52:12.432Z,14.28
2019-03-15T19:55:00.547Z,11.75
2019-03-15T20:06:13.901Z,7.95
2019-03-15T20:08:46.027Z,9.55
2019-03-15T20:11:24.038Z,13.83
2019-03-15T20:13:53.325Z,12.98
2019-03-15T20:16:23.459Z,16.67
2019-03-15T20:18:52.028Z,10.40
2019-03-15T20:21:20.611Z,7.62
2019-03-15T20:23:49.159Z,13.83
2019-03-15T20:26:17.709Z,11.10
2019-03-15T20:28:46.262Z,8.93
2019-03-15T20:31:14.803Z,14.18
2019-03-15T20:33:46.021Z,8.30
2019-03-15T20:36:14.944Z,8.18
2019-03-15T20:38:43.443Z,10.13
2019-03-15T20:41:12.271Z,13.78
2019-03-15T20:43:40.837Z,19.25
2019-03-15T20:46:09.716Z,9.95
2019-03-15T20:48:38.187Z,9.88
2019-03-15T20:51:06.741Z,9.53
2019-03-15T20:53:35.566Z,15.15
2019-03-15T20:56:04.193Z,12.63
2019-03-15T20:58:33.076Z,13.18
2019-03-15T21:01:03.499Z,13.10
2019-03-15T21:03:32.134Z,11.08
2019-03-15T21:06:00.728Z,10.60
2019-03-15T21:08:29.337Z,8.75
2019-03-15T21:19:44.216Z,10.28
2019-03-15T21:25:10.724Z,6.67
2019-03-15T21:29:51.569Z,9.70
2019-03-15T21:33:28.342Z,7.03
2019-03-15T21:39:03.760Z,10.28
2019-03-15T21:41:33.500Z,17.37
2019-03-15T21:44:02.068Z,10.30
2019-03-15T21:46:30.659Z,8.28
2019-03-15T21:49:02.792Z,9.95
2019-03-15T21:51:36.303Z,8.13
2019-03-15T21:54:06.612Z,9.55
2019-03-15T21:56:37.881Z,5.97
2019-03-15T21:59:11.253Z,12.93
2019-03-15T22:01:39.995Z,6.78
2019-03-15T22:04:08.649Z,7.72
2019-03-15T22:06:37.701Z,9.00
2019-03-15T22:09:06.929Z,3.33
2019-03-15T22:11:35.682Z,6.10
2019-03-15T22:14:04.472Z,10.32
2019-03-15T22:16:33.256Z,11.48
2019-03-15T22:19:02.056Z,11.20
2019-03-15T22:21:30.799Z,9.05
2019-03-15T22:24:00.566Z,9.40
2019-03-15T22:26:29.503Z,4.60
2019-03-15T22:28:58.118Z,6.45
2019-03-15T22:31:28.271Z,8.30
2019-03-15T22:33:58.573Z,10.63
2019-03-15T22:36:27.207Z,5.17
2019-03-15T22:38:55.824Z,4.78
2019-03-15T22:41:24.379Z,10.93
2019-03-15T22:43:52.955Z,13.55
2019-03-15T22:46:22.161Z,8.48
2019-03-15T22:48:50.989Z,12.20
2019-03-15T22:51:19.539Z,10.75
2019-03-15T22:53:49.635Z,8.43
2019-03-15T22:56:18.154Z,10.08
2019-03-15T22:58:46.951Z,6.85
2019-03-15T23:01:29.319Z,10.23
2019-03-15T23:03:45.851Z,7.10
2019-03-15T23:06:14.385Z,7.42
2019-03-15T23:08:42.951Z,12.55
2019-03-15T23:11:11.497Z,10.95
2019-03-15T23:13:40.136Z,10.55
2019-03-15T23:16:08.758Z,8.45
2019-03-15T23:18:37.311Z,9.50
2019-03-15T23:21:06.085Z,9.40
2019-03-15T23:23:34.660Z,8.03
2019-03-15T23:26:03.252Z,15.03
2019-03-15T23:28:31.936Z,11.30
2019-03-15T23:31:00.640Z,9.43
2019-03-15T23:33:29.221Z,5.95
2019-03-15T23:35:57.905Z,9.53
2019-03-15T23:38:26.848Z,9.38
2019-03-15T23:40:55.610Z,9.53
2019-03-15T23:43:24.327Z,8.70
2019-03-15T23:48:55.422Z,7.00
2019-03-15T23:51:25.698Z,6.60
2019-03-15T23:53:59.438Z,9.10
2019-03-15T23:56:30.284Z,7.37
2019-03-15T23:58:59.506Z,13.85
